AirportContent of TAF forecast
LYBETAF LYBE 130500Z 1306/1406 21004KT 3000 BR BKN006 BKN030 TX11/1313Z TN01/1306Z TEMPO 1306/1308 1200 BKN003 BECMG 1308/1310 9999 NSW SCT015 SCT030 BECMG 1310/1312 14012KT TEMPO 1318/1406 14015G28KT TEMPO 1403/1406 RA=
LYBTTAF LYBT 130500Z 1306/1406 22005KT 4000 BR SCT008 BKN033 TX10/1312Z TN01/1306Z TEMPO 1306/1308 1500 BKN005 BECMG 1308/1310 9999 NSW BECMG 1310/1312 10012KT TEMPO 1318/1406 11015G28KT TEMPO 1403/1406 RA=
LYKVTAF LYKV 130500Z 1306/1406 31005KT 3000 BR SCT013 BKN040 TX09/1313Z TN02/1306Z TEMPO 1306/1308 1500 BKN008 BECMG 1308/1310 7000 NSW BECMG 1313/1315 15010KT TEMPO 1400/1406 5000 RA BKN013 BKN033=
LYNITAF LYNI 130500Z 1306/1406 10005KT 5000 BR SCT010 BKN040 TX13/1313Z TN04/1405Z TEMPO 1306/1308 1500 BECMG 1308/1310 9999 NSW BECMG 1318/1320 09015KT TEMPO 1403/1406 RA=
LYVRTAF LYVR 130500Z 1306/1406 13018KT 9999 BKN033 TX11/1312Z TN06/1405Z TEMPO 1306/1310 14020G35KT BECMG 1313/1315 14020G40KT TEMPO 1318/1406 14025G55KT=
LYUZTAF LYUZ 130500Z 1306/1406 21004KT 9999 BR BKN020 TX03/1313Z TN00/1306Z BECMG 1307/1309 20014KT TEMPO 1400/1406 5000 RA BKN010=
LYPGTAF LYPG 130500Z 1306/1406 16005KT 6000 FEW010 BKN040 OVC070 TX10/1314Z TN07/1306Z TEMPO 1306/1309 2000 RA BR BECMG 1311/1313 16015KT BECMG 1316/1418 14015G30KT RA PROB40 TEMPO 1320/1304 2000 TSRA FEW010 FEW027CB BKN033=
LYTVTAF LYTV 130500Z 1306/1406 15008KT 9999 SCT030 BKN083 TX14/1312Z TN07/1404Z PROB40 TEMPO 1306/1308 5000 RA TEMPO 1312/1324 15015G30KT BECMG 1316/1318 4000 RA PROB30 TEMPO 1320/1406 2000 TSRA FEW027CB BKN030=

Data loaded: 2019-12-13 05:13:52 UTC

METAR, TAF, AIRMET, GAMET, SIGMET

Important note: MET information on these web pages are informative and restricted to aeronautical users, must not be used for any commercial purpose, and do not replace flight documentation.